Time;durP1;ratioP1;P1;durP2;ratioP2;P2;SDS_P1;SDS_P2;PMS_P1;PMS_P2;Temp;Humidity;BMP_temperature;BMP_pressure;BME280_temperature;BME280_humidity;BME280_pressure;Samples;Min_cycle;Max_cycle;Signal;HPM_P1;HPM_P2
2022/10/08 00:00:00;;;;;;;5.7;4.6;;;;;;;;;;;;;
2022/10/08 00:02:28;;;;;;;7;5.3;;;;;;;;;;;;;
2022/10/08 00:04:56;;;;;;;8.3;6.2;;;;;;;;;;;;;
2022/10/08 00:07:21;;;;;;;7;6.3;;;;;;;;;;;;;
2022/10/08 00:09:46;;;;;;;7.7;6.2;;;;;;;;;;;;;
2022/10/08 00:12:11;;;;;;;6.4;5.8;;;;;;;;;;;;;
2022/10/08 00:14:37;;;;;;;8;5.5;;;;;;;;;;;;;
2022/10/08 00:17:02;;;;;;;6.9;5.5;;;;;;;;;;;;;
2022/10/08 00:19:27;;;;;;;6;5.4;;;;;;;;;;;;;
2022/10/08 00:21:56;;;;;;;6.5;5.3;;;;;;;;;;;;;
2022/10/08 00:24:22;;;;;;;5.9;5.3;;;;;;;;;;;;;
2022/10/08 00:26:47;;;;;;;6.6;5.2;;;;;;;;;;;;;
2022/10/08 00:29:12;;;;;;;5.5;4.6;;;;;;;;;;;;;
2022/10/08 00:31:39;;;;;;;7;4.9;;;;;;;;;;;;;
2022/10/08 00:34:04;;;;;;;5.5;4.9;;;;;;;;;;;;;
2022/10/08 00:36:30;;;;;;;6.9;5;;;;;;;;;;;;;
2022/10/08 00:38:54;;;;;;;6.6;5.1;;;;;;;;;;;;;
2022/10/08 00:41:19;;;;;;;8.8;5;;;;;;;;;;;;;
2022/10/08 00:43:46;;;;;;;5.9;4.8;;;;;;;;;;;;;
2022/10/08 00:46:11;;;;;;;5.7;4.9;;;;;;;;;;;;;
2022/10/08 00:48:38;;;;;;;6.1;4.8;;;;;;;;;;;;;
2022/10/08 00:51:03;;;;;;;5.3;4.6;;;;;;;;;;;;;
2022/10/08 00:53:29;;;;;;;5.3;4.5;;;;;;;;;;;;;
2022/10/08 00:55:54;;;;;;;5.3;4.5;;;;;;;;;;;;;
2022/10/08 00:58:19;;;;;;;5.1;4.4;;;;;;;;;;;;;
2022/10/08 01:00:46;;;;;;;6.2;4.6;;;;;;;;;;;;;
2022/10/08 01:03:10;;;;;;;5.3;4.7;;;;;;;;;;;;;
2022/10/08 01:05:38;;;;;;;4.7;4.3;;;;;;;;;;;;;
2022/10/08 01:08:01;;;;;;;5;4.5;;;;;;;;;;;;;
2022/10/08 01:10:26;;;;;;;5.2;4.7;;;;;;;;;;;;;
2022/10/08 01:12:51;;;;;;;5.2;4.5;;;;;;;;;;;;;
2022/10/08 01:15:16;;;;;;;5.7;4.8;;;;;;;;;;;;;
2022/10/08 01:17:41;;;;;;;5.6;4.7;;;;;;;;;;;;;
2022/10/08 01:20:06;;;;;;;5.1;4.6;;;;;;;;;;;;;
2022/10/08 01:22:34;;;;;;;6.2;4.7;;;;;;;;;;;;;
2022/10/08 01:27:22;;;;;;;6.8;5.2;;;;;;;;;;;;;
2022/10/08 01:29:47;;;;;;;6.4;5;;;;;;;;;;;;;
2022/10/08 01:32:12;;;;;;;6.7;4.8;;;;;;;;;;;;;
2022/10/08 01:34:37;;;;;;;5.7;4.5;;;;;;;;;;;;;
2022/10/08 01:37:02;;;;;;;6.2;4.8;;;;;;;;;;;;;
2022/10/08 01:39:27;;;;;;;5.2;4.3;;;;;;;;;;;;;
2022/10/08 01:41:55;;;;;;;4.6;4.2;;;;;;;;;;;;;
2022/10/08 01:44:19;;;;;;;4.7;4;;;;;;;;;;;;;
2022/10/08 01:46:45;;;;;;;5.1;4.1;;;;;;;;;;;;;
2022/10/08 01:49:10;;;;;;;5.5;4.2;;;;;;;;;;;;;
2022/10/08 01:51:35;;;;;;;5.2;4.3;;;;;;;;;;;;;
2022/10/08 01:54:00;;;;;;;4.8;4.3;;;;;;;;;;;;;
2022/10/08 01:56:25;;;;;;;4.7;4.2;;;;;;;;;;;;;
2022/10/08 01:58:52;;;;;;;6.2;4.3;;;;;;;;;;;;;
2022/10/08 02:01:18;;;;;;;4.7;4;;;;;;;;;;;;;
2022/10/08 02:04:31;;;;;;;5.4;4.1;;;;;;;;;;;;;
2022/10/08 02:06:09;;;;;;;5.2;4;;;;;;;;;;;;;
2022/10/08 02:08:34;;;;;;;4.4;3.9;;;;;;;;;;;;;
2022/10/08 02:11:00;;;;;;;5.3;4.4;;;;;;;;;;;;;
2022/10/08 02:13:25;;;;;;;5.2;3.8;;;;;;;;;;;;;
2022/10/08 02:15:50;;;;;;;4;3.6;;;;;;;;;;;;;
2022/10/08 02:18:18;;;;;;;4.2;3.8;;;;;;;;;;;;;
2022/10/08 02:20:43;;;;;;;4.7;4.2;;;;;;;;;;;;;
2022/10/08 02:23:08;;;;;;;5.7;4.5;;;;;;;;;;;;;
2022/10/08 02:25:33;;;;;;;4.4;4;;;;;;;;;;;;;
2022/10/08 02:27:58;;;;;;;6.3;4.6;;;;;;;;;;;;;
2022/10/08 02:30:25;;;;;;;6;4.3;;;;;;;;;;;;;
2022/10/08 02:32:50;;;;;;;5;4.3;;;;;;;;;;;;;
2022/10/08 02:35:18;;;;;;;5;4.5;;;;;;;;;;;;;
2022/10/08 02:37:43;;;;;;;4.7;4.2;;;;;;;;;;;;;
2022/10/08 02:40:12;;;;;;;5.3;4.2;;;;;;;;;;;;;
2022/10/08 02:42:39;;;;;;;4.7;4.2;;;;;;;;;;;;;
2022/10/08 02:45:06;;;;;;;5;4.3;;;;;;;;;;;;;
2022/10/08 02:47:31;;;;;;;6.5;4.1;;;;;;;;;;;;;
2022/10/08 02:49:56;;;;;;;6.2;4;;;;;;;;;;;;;
2022/10/08 02:52:23;;;;;;;5.1;4.4;;;;;;;;;;;;;
2022/10/08 02:54:49;;;;;;;5.7;3.9;;;;;;;;;;;;;
2022/10/08 02:57:13;;;;;;;5.2;4;;;;;;;;;;;;;
2022/10/08 02:59:38;;;;;;;5.4;4.1;;;;;;;;;;;;;
2022/10/08 03:02:03;;;;;;;5.7;4.2;;;;;;;;;;;;;
2022/10/08 03:04:29;;;;;;;5.2;4;;;;;;;;;;;;;
2022/10/08 03:06:55;;;;;;;6.2;3.8;;;;;;;;;;;;;
2022/10/08 03:09:20;;;;;;;5.7;4;;;;;;;;;;;;;
2022/10/08 03:11:47;;;;;;;4.8;3.9;;;;;;;;;;;;;
2022/10/08 03:14:24;;;;;;;5.6;3.7;;;;;;;;;;;;;
2022/10/08 03:16:39;;;;;;;5.2;3.8;;;;;;;;;;;;;
2022/10/08 03:19:04;;;;;;;5.2;4.1;;;;;;;;;;;;;
2022/10/08 03:21:29;;;;;;;4.2;3.8;;;;;;;;;;;;;
2022/10/08 03:23:55;;;;;;;5.8;3.9;;;;;;;;;;;;;
2022/10/08 03:26:20;;;;;;;4.1;3.7;;;;;;;;;;;;;
2022/10/08 03:29:03;;;;;;;4.3;3.9;;;;;;;;;;;;;
2022/10/08 03:31:29;;;;;;;4.4;3.9;;;;;;;;;;;;;
2022/10/08 03:33:54;;;;;;;5.8;3.9;;;;;;;;;;;;;
2022/10/08 03:36:20;;;;;;;8.1;3.9;;;;;;;;;;;;;
2022/10/08 03:38:45;;;;;;;4.7;3.8;;;;;;;;;;;;;
2022/10/08 03:41:12;;;;;;;4.9;3.8;;;;;;;;;;;;;
2022/10/08 03:43:37;;;;;;;4.2;3.8;;;;;;;;;;;;;
2022/10/08 03:46:04;;;;;;;4.2;3.8;;;;;;;;;;;;;
2022/10/08 03:48:29;;;;;;;4.4;4;;;;;;;;;;;;;
2022/10/08 03:50:56;;;;;;;5.5;3.9;;;;;;;;;;;;;
2022/10/08 03:53:21;;;;;;;4.2;3.8;;;;;;;;;;;;;
2022/10/08 03:55:46;;;;;;;4.1;3.7;;;;;;;;;;;;;
2022/10/08 03:59:02;;;;;;;4.6;3.8;;;;;;;;;;;;;
2022/10/08 04:02:35;;;;;;;4.4;3.6;;;;;;;11.11;92.95996;941.3627;;;;
2022/10/08 04:05:07;;;;;;;4.3;3.9;;;;;;;11.07;93.24805;941.3972;;;;
2022/10/08 04:07:35;;;;;;;4.6;4;;;;;;;11.03;93.75293;941.4373;;;;
2022/10/08 04:10:00;;;;;;;4.4;4;;;;;;;11.03;93.70703;941.4325;;;;
2022/10/08 04:12:25;;;;;;;5.5;4.1;;;;;;;11.08;93.70898;941.4221;;;;
2022/10/08 04:14:51;;;;;;;5.5;4.1;;;;;;;11.09;93.63086;941.4022;;;;
2022/10/08 04:18:26;;;;;;;6.9;4.4;;;;;;;10.91;94.80273;941.3973;;;;
2022/10/08 04:20:51;;;;;;;5.3;4.3;;;;;;;10.74;96.61621;941.3494;;;;
2022/10/08 04:23:17;;;;;;;5.7;4.8;;;;;;;10.91;95.6377;941.3575;;;;
2022/10/08 04:25:43;;;;;;;4.8;4.3;;;;;;;11.03;94.82715;941.3577;;;;
2022/10/08 04:28:08;;;;;;;5.9;4.3;;;;;;;11;94.22852;941.3873;;;;
2022/10/08 04:30:37;;;;;;;5.8;4.1;;;;;;;11.01;94.16016;941.3586;;;;
2022/10/08 04:33:03;;;;;;;5.6;3.9;;;;;;;11.06;93.69336;941.3653;;;;
2022/10/08 04:35:28;;;;;;;5.7;4.1;;;;;;;11.04;93.92773;941.3538;;;;
2022/10/08 04:37:56;;;;;;;6.8;3.9;;;;;;;11.1;93.50684;941.3912;;;;
2022/10/08 04:40:21;;;;;;;4.1;3.7;;;;;;;11.17;92.9834;941.4263;;;;
2022/10/08 04:42:49;;;;;;;4.2;3.8;;;;;;;11.1;93.34473;941.3856;;;;
2022/10/08 04:45:20;;;;;;;6.3;4.2;;;;;;;10.99;94.10059;941.4875;;;;
2022/10/08 04:47:50;;;;;;;6.9;4.5;;;;;;;10.9;94.84473;941.4736;;;;
2022/10/08 04:50:15;;;;;;;4.1;3.7;;;;;;;10.98;94.17871;941.4891;;;;
2022/10/08 04:52:43;;;;;;;4.6;3.7;;;;;;;10.76;95.44336;941.489;;;;
2022/10/08 04:55:08;;;;;;;5.1;4;;;;;;;10.69;96.19336;941.4316;;;;
2022/10/08 04:57:34;;;;;;;4.2;3.8;;;;;;;10.91;95.24902;941.426;;;;
2022/10/08 04:59:59;;;;;;;4.8;4.1;;;;;;;11;94.48926;941.4295;;;;
2022/10/08 05:02:24;;;;;;;4.2;3.8;;;;;;;11.06;94.06934;941.4138;;;;
2022/10/08 05:04:51;;;;;;;4.6;4;;;;;;;11.05;93.81543;941.4249;;;;
2022/10/08 05:07:16;;;;;;;5;4.1;;;;;;;11;94.01172;941.4303;;;;
2022/10/08 05:09:49;;;;;;;5.1;3.9;;;;;;;11.01;94.33105;941.432;;;;
2022/10/08 05:12:18;;;;;;;4.5;3.4;;;;;;;11.16;93.49609;941.3934;;;;
2022/10/08 05:14:48;;;;;;;5.1;4;;;;;;;11.21;92.99512;941.4288;;;;
2022/10/08 05:17:13;;;;;;;6.2;4;;;;;;;11.17;93.15527;941.4224;;;;
2022/10/08 05:19:39;;;;;;;6.3;4;;;;;;;11.16;93.38379;941.4302;;;;
2022/10/08 05:25:32;;;;;;;4.1;3.7;;;;;;;11.05;95.10742;941.4201;;;;
2022/10/08 05:27:56;;;;;;;5.9;4;;;;;;;11.1;95.43945;941.4;;;;
2022/10/08 05:30:25;;;;;;;5;3.6;;;;;;;11.23;94.80176;941.3787;;;;
2022/10/08 05:32:50;;;;;;;5.4;3.7;;;;;;;11.26;94.9834;941.4142;;;;
2022/10/08 05:35:18;;;;;;;6.2;4;;;;;;;11.26;95.17773;941.4317;;;;
2022/10/08 05:37:43;;;;;;;5.3;4.2;;;;;;;11.34;95.51367;941.4406;;;;
2022/10/08 05:40:08;;;;;;;4.5;3.7;;;;;;;11.51;95.00195;941.4891;;;;
2022/10/08 05:42:38;;;;;;;3.7;3.3;;;;;;;11.53;94.57129;941.4964;;;;
2022/10/08 05:45:57;;;;;;;5.4;3.7;;;;;;;11.67;93.41406;941.5724;;;;
2022/10/08 05:48:26;;;;;;;3.4;3.1;;;;;;;11.69;93.00586;941.6013;;;;
2022/10/08 05:50:52;;;;;;;4.2;3.4;;;;;;;11.69;93.35938;941.5159;;;;
2022/10/08 05:53:20;;;;;;;5.2;3.6;;;;;;;11.8;92.99512;941.475;;;;
2022/10/08 05:55:45;;;;;;;4.6;3.2;;;;;;;11.75;92.76563;941.4894;;;;
2022/10/08 05:58:13;;;;;;;4.7;4.2;;;;;;;11.77;93.22754;941.5144;;;;
2022/10/08 06:00:38;;;;;;;3.7;3.4;;;;;;;11.89;92.54297;941.5049;;;;
2022/10/08 06:03:10;;;;;;;6.2;3.7;;;;;;;11.8;92.53711;941.444;;;;
2022/10/08 06:05:40;;;;;;;5;3.9;;;;;;;11.67;93.51563;941.483;;;;
2022/10/08 06:08:11;;;;;;;6.1;4.4;;;;;;;11.64;93.05176;941.4412;;;;
2022/10/08 06:10:36;;;;;;;6.2;4.3;;;;;;;11.85;93.07324;941.4176;;;;
2022/10/08 06:13:01;;;;;;;5.8;4.6;;;;;;;12.04;91.46387;941.4651;;;;
2022/10/08 06:15:35;;;;;;;6.6;4.6;;;;;;;12.18;90.42871;941.4822;;;;
2022/10/08 06:18:01;;;;;;;5.9;4.7;;;;;;;12.32;89.44824;941.5053;;;;
2022/10/08 06:20:26;;;;;;;7.6;4.5;;;;;;;12.41;88.99707;941.5323;;;;
2022/10/08 06:22:54;;;;;;;5.5;4.2;;;;;;;12.3;89.41016;941.5546;;;;
2022/10/08 06:25:19;;;;;;;4.6;4;;;;;;;12.28;90.51855;941.5513;;;;
2022/10/08 06:27:47;;;;;;;4.6;4.1;;;;;;;12.43;89.96582;941.615;;;;
2022/10/08 06:30:12;;;;;;;5;3.6;;;;;;;12.48;89.56152;941.5667;;;;
2022/10/08 06:32:39;;;;;;;4.3;3.7;;;;;;;12.55;89.04688;941.6152;;;;
2022/10/08 06:35:04;;;;;;;4.4;3.6;;;;;;;12.7;87.94238;941.63;;;;
2022/10/08 06:37:32;;;;;;;5.5;3.8;;;;;;;12.93;87.67871;941.6764;;;;
2022/10/08 06:39:57;;;;;;;3.9;3.5;;;;;;;13.41;86.39746;941.6501;;;;
2022/10/08 06:42:23;;;;;;;3.8;3.3;;;;;;;13.87;84.09375;941.6764;;;;
2022/10/08 06:44:48;;;;;;;3.9;3.2;;;;;;;14.02;82.16699;941.6594;;;;
2022/10/08 06:47:14;;;;;;;2.9;2.6;;;;;;;14.15;80.62695;941.7436;;;;
2022/10/08 06:49:39;;;;;;;8.4;3.8;;;;;;;14.22;81.38867;941.7248;;;;
2022/10/08 06:52:06;;;;;;;3.4;2.7;;;;;;;14.17;80.43457;941.6683;;;;
2022/10/08 06:54:31;;;;;;;3.2;2.4;;;;;;;14.28;79.91309;941.7408;;;;
2022/10/08 06:56:56;;;;;;;3.4;2.8;;;;;;;14.42;79.78809;941.8021;;;;
2022/10/08 06:59:21;;;;;;;3.2;2.5;;;;;;;14.43;78.31641;941.7888;;;;
2022/10/08 07:01:52;;;;;;;3.9;3.1;;;;;;;14.63;79.42383;941.7185;;;;
2022/10/08 07:04:17;;;;;;;6.7;4.3;;;;;;;14.72;78.78223;941.7713;;;;
2022/10/08 07:06:43;;;;;;;5.1;3.7;;;;;;;14.93;77.55078;941.8075;;;;
2022/10/08 07:09:09;;;;;;;3.1;2.8;;;;;;;15.12;77.05566;941.8667;;;;
2022/10/08 07:11:35;;;;;;;3.6;2.6;;;;;;;15.39;76.47949;941.9072;;;;
2022/10/08 07:14:00;;;;;;;3.6;2.7;;;;;;;15.53;74.52832;941.9776;;;;
2022/10/08 07:16:25;;;;;;;5.8;3.2;;;;;;;15.64;74.63867;941.9698;;;;
2022/10/08 07:18:51;;;;;;;6.1;2.5;;;;;;;15.77;75.28613;941.9026;;;;
2022/10/08 07:21:16;;;;;;;3.1;2.4;;;;;;;15.94;73.83594;941.9526;;;;
2022/10/08 07:23:42;;;;;;;3.3;2.4;;;;;;;15.81;73.37598;941.9794;;;;
2022/10/08 07:26:08;;;;;;;3.1;2.8;;;;;;;16.06;74.5957;941.9836;;;;
2022/10/08 07:28:32;;;;;;;3.1;2.6;;;;;;;15.99;73.27734;942.072;;;;
2022/10/08 07:31:01;;;;;;;2.9;2.6;;;;;;;15.86;73.67188;942.165;;;;
2022/10/08 07:33:26;;;;;;;3.6;2.4;;;;;;;15.69;74.13965;942.204;;;;
2022/10/08 07:35:51;;;;;;;4.4;3.2;;;;;;;15.43;75.66602;942.1987;;;;
2022/10/08 07:38:17;;;;;;;4.5;2.7;;;;;;;15.36;76.03613;942.1906;;;;
2022/10/08 07:41:28;;;;;;;5.6;3;;;;;;;15.32;76.52441;942.197;;;;
2022/10/08 07:43:53;;;;;;;5.5;3.5;;;;;;;15.28;77.41895;942.2413;;;;
2022/10/08 07:46:19;;;;;;;5.9;3.7;;;;;;;15.13;78.24512;942.1859;;;;
2022/10/08 07:48:44;;;;;;;4.4;3.5;;;;;;;15.11;78.93457;942.2165;;;;
2022/10/08 07:51:14;;;;;;;6.6;4.5;;;;;;;15.11;78.76172;942.178;;;;
2022/10/08 07:53:40;;;;;;;5.7;4.2;;;;;;;15.06;79.09961;942.0938;;;;
2022/10/08 07:56:06;;;;;;;9.7;6.7;;;;;;;15.02;79.81641;942.0963;;;;
2022/10/08 07:58:32;;;;;;;9.9;6.3;;;;;;;14.99;78.83203;942.0945;;;;
2022/10/08 08:00:58;;;;;;;8.4;5.6;;;;;;;15.05;79.46484;942.085;;;;
2022/10/08 08:03:28;;;;;;;4.6;3.4;;;;;;;15.02;78.82617;942.15;;;;
2022/10/08 08:05:53;;;;;;;5.7;3.1;;;;;;;14.69;79.06738;942.2058;;;;
2022/10/08 08:08:23;;;;;;;7.1;3.3;;;;;;;14.68;80.28516;942.2258;;;;
2022/10/08 08:10:47;;;;;;;5;3.6;;;;;;;14.82;80.14941;942.178;;;;
2022/10/08 08:13:14;;;;;;;4.1;2.9;;;;;;;15.15;79.27539;942.1546;;;;
2022/10/08 08:15:45;;;;;;;4;3;;;;;;;15.37;77.72363;942.0428;;;;
2022/10/08 08:18:11;;;;;;;5.7;3.4;;;;;;;15.74;78.04297;942.0689;;;;
2022/10/08 08:20:42;;;;;;;5.4;3.5;;;;;;;15.91;75.59863;942.1142;;;;
2022/10/08 08:23:07;;;;;;;4;2.7;;;;;;;15.88;75.22363;942.1031;;;;
2022/10/08 08:25:32;;;;;;;4.1;3;;;;;;;15.93;75.58984;942.0514;;;;
2022/10/08 08:28:00;;;;;;;4.3;3.2;;;;;;;16.08;75.74414;942.0317;;;;
2022/10/08 08:30:25;;;;;;;4.2;3.2;;;;;;;16.69;75.89746;942.0784;;;;
2022/10/08 08:32:51;;;;;;;3.3;2.6;;;;;;;18.61;68.42383;941.9921;;;;
2022/10/08 08:35:16;;;;;;;2.5;2.3;;;;;;;19.79;61.85449;941.9977;;;;
2022/10/08 08:37:44;;;;;;;4;2.5;;;;;;;21.02;56.27344;941.973;;;;
2022/10/08 08:40:09;;;;;;;3.1;2.3;;;;;;;21.2;54.83398;941.954;;;;
2022/10/08 08:42:38;;;;;;;2.6;2.1;;;;;;;20.12;56.90527;941.9615;;;;
2022/10/08 08:45:08;;;;;;;4.7;2.2;;;;;;;19.6;58.28418;941.9631;;;;
2022/10/08 08:47:33;;;;;;;2.9;2.3;;;;;;;19.28;58.61523;941.9508;;;;
2022/10/08 08:50:02;;;;;;;5.8;2.7;;;;;;;18.96;59.72461;941.9348;;;;
2022/10/08 08:52:28;;;;;;;3.2;2.3;;;;;;;18.68;60.4209;941.8907;;;;
2022/10/08 08:54:53;;;;;;;3.6;2.5;;;;;;;18.52;60.95508;941.8942;;;;
2022/10/08 08:57:19;;;;;;;3;2;;;;;;;18.88;60.37695;941.8862;;;;
2022/10/08 08:59:45;;;;;;;2.8;2.5;;;;;;;18.93;60.53418;941.8934;;;;
2022/10/08 09:02:10;;;;;;;2.7;2.5;;;;;;;18.67;60.62891;941.8561;;;;
2022/10/08 09:04:35;;;;;;;3.7;2.7;;;;;;;18.82;60.5791;941.8541;;;;
2022/10/08 09:07:00;;;;;;;3.3;2.6;;;;;;;19.5;58.93555;941.8663;;;;
2022/10/08 09:09:25;;;;;;;3.3;2.8;;;;;;;19.29;61.40039;941.8553;;;;
2022/10/08 09:11:50;;;;;;;2.9;2.4;;;;;;;19.31;59.24805;941.8226;;;;
2022/10/08 09:14:15;;;;;;;3;2.7;;;;;;;19.38;60.5166;941.8141;;;;
2022/10/08 09:16:42;;;;;;;3.5;2.5;;;;;;;19.9;58.75684;941.8097;;;;
2022/10/08 09:19:11;;;;;;;4.2;2.4;;;;;;;20.38;57.17285;941.7952;;;;
2022/10/08 09:21:36;;;;;;;3.2;2.6;;;;;;;20.91;56.07227;941.7457;;;;
2022/10/08 09:24:02;;;;;;;4;2.1;;;;;;;21.43;53.66895;941.7869;;;;
2022/10/08 09:26:27;;;;;;;2.3;2.1;;;;;;;21.52;53.15332;941.6733;;;;
2022/10/08 09:28:53;;;;;;;2.3;2.1;;;;;;;21.93;50.59961;941.7225;;;;
2022/10/08 09:31:19;;;;;;;2.8;2.2;;;;;;;21.45;53.38965;941.6989;;;;
2022/10/08 09:33:44;;;;;;;2.2;2;;;;;;;21.79;51.45117;941.6411;;;;
2022/10/08 09:36:09;;;;;;;3.3;2.2;;;;;;;22.41;50.2334;941.614;;;;
2022/10/08 09:38:34;;;;;;;3.9;2.4;;;;;;;22.4;50.27832;941.6404;;;;
2022/10/08 09:41:01;;;;;;;2.6;2.1;;;;;;;22.41;49.37598;941.5881;;;;
2022/10/08 09:43:26;;;;;;;3.6;2.1;;;;;;;22.08;50.51074;941.5891;;;;
2022/10/08 09:45:53;;;;;;;3;2.3;;;;;;;21.65;51.16504;941.6142;;;;
2022/10/08 09:48:16;;;;;;;3.7;2.4;;;;;;;21.26;52.44238;941.5327;;;;
2022/10/08 09:50:44;;;;;;;3.2;2.4;;;;;;;21.04;53.34082;941.588;;;;
2022/10/08 09:53:09;;;;;;;4.5;2.4;;;;;;;20.92;54.02734;941.5933;;;;
2022/10/08 09:55:35;;;;;;;3.5;2.3;;;;;;;20.67;52.7002;941.5303;;;;
2022/10/08 09:58:02;;;;;;;3.4;2.3;;;;;;;20.69;54.12793;941.5103;;;;
2022/10/08 10:00:26;;;;;;;4.3;2.3;;;;;;;20.72;55.4873;941.5403;;;;
2022/10/08 10:02:56;;;;;;;3.8;2.9;;;;;;;21.04;54.94238;941.499;;;;
2022/10/08 10:05:25;;;;;;;3;2.3;;;;;;;21.24;54.23047;941.5274;;;;
2022/10/08 10:07:53;;;;;;;3.5;2.2;;;;;;;21.18;54.97168;941.5003;;;;
2022/10/08 10:10:22;;;;;;;3.1;2.4;;;;;;;20.95;53.98535;941.5844;;;;
2022/10/08 10:12:47;;;;;;;2.7;2.3;;;;;;;20.73;55.51074;941.5864;;;;
2022/10/08 10:15:14;;;;;;;4.2;2.4;;;;;;;21.13;55.33984;941.6102;;;;
2022/10/08 10:17:42;;;;;;;3.1;2.3;;;;;;;20.95;54.32422;941.5932;;;;
2022/10/08 10:20:09;;;;;;;3.2;2.3;;;;;;;20.76;55.84375;941.5798;;;;
2022/10/08 10:22:34;;;;;;;5;2.3;;;;;;;21.12;55.43262;941.5754;;;;
2022/10/08 10:25:01;;;;;;;6.1;2.5;;;;;;;21.18;56.18848;941.5739;;;;
2022/10/08 10:27:26;;;;;;;2.6;2.4;;;;;;;20.63;55.58105;941.4827;;;;
2022/10/08 10:29:51;;;;;;;4.2;2.3;;;;;;;20.58;55.93652;941.4853;;;;
2022/10/08 10:32:17;;;;;;;2.5;2.2;;;;;;;21.16;56.78125;941.4036;;;;
2022/10/08 10:34:42;;;;;;;3.2;2.2;;;;;;;21.32;57.78516;941.3376;;;;
2022/10/08 10:37:07;;;;;;;3.6;2.3;;;;;;;21.24;55.59863;941.4228;;;;
2022/10/08 10:39:32;;;;;;;3.6;2.6;;;;;;;21.33;54.125;941.4044;;;;
2022/10/08 10:41:57;;;;;;;3.4;2.3;;;;;;;21.52;53.25781;941.359;;;;
2022/10/08 10:44:25;;;;;;;3.2;2.3;;;;;;;21.56;53.53223;941.3481;;;;
2022/10/08 10:46:51;;;;;;;3.4;2.3;;;;;;;21.52;53.76172;941.3606;;;;
2022/10/08 10:49:16;;;;;;;4.1;2.2;;;;;;;21.47;54.84375;941.315;;;;
2022/10/08 10:51:41;;;;;;;2.8;2.1;;;;;;;21.86;54.78613;941.3078;;;;
2022/10/08 10:54:06;;;;;;;2.9;2.6;;;;;;;21.76;54.62207;941.2829;;;;
2022/10/08 10:56:31;;;;;;;5;2.4;;;;;;;21.74;54.72461;941.2639;;;;
2022/10/08 10:58:56;;;;;;;3.8;3;;;;;;;21.61;55.83203;941.2366;;;;
2022/10/08 11:01:22;;;;;;;3.2;2.4;;;;;;;21.37;59.53711;941.1926;;;;
2022/10/08 11:03:51;;;;;;;2.6;2.3;;;;;;;21.49;59.42383;941.1663;;;;
2022/10/08 11:06:17;;;;;;;4;2.3;;;;;;;21.87;55.9707;941.1614;;;;
2022/10/08 11:08:43;;;;;;;4.2;2.4;;;;;;;22.21;56.10645;941.1187;;;;
2022/10/08 11:11:08;;;;;;;4.6;2.5;;;;;;;22.1;55.97656;941.1251;;;;
2022/10/08 11:13:35;;;;;;;5.3;2.2;;;;;;;21.61;58.77246;941.0372;;;;
2022/10/08 11:16:05;;;;;;;4.2;2.7;;;;;;;21.33;58.5957;941.0349;;;;
2022/10/08 11:18:30;;;;;;;7.3;2.7;;;;;;;20.95;61.5498;941.0272;;;;
2022/10/08 11:20:55;;;;;;;4.2;2.3;;;;;;;20.59;63.07715;941.0528;;;;
2022/10/08 11:23:22;;;;;;;5;2.5;;;;;;;20.27;63.8252;941.0602;;;;
2022/10/08 11:25:49;;;;;;;3.9;2.4;;;;;;;20.34;63.91699;940.9871;;;;
2022/10/08 11:28:14;;;;;;;6;2.5;;;;;;;20.41;63.31836;941.0417;;;;
2022/10/08 11:30:40;;;;;;;4.7;2.9;;;;;;;20.45;63.81543;941.0603;;;;
2022/10/08 11:33:05;;;;;;;4.5;2.9;;;;;;;20.39;65.19727;941.0507;;;;
2022/10/08 11:35:31;;;;;;;6.8;3;;;;;;;20.2;64.24805;941.0208;;;;
2022/10/08 11:37:57;;;;;;;10.2;3.4;;;;;;;19.96;65.40234;940.9938;;;;
2022/10/08 11:40:25;;;;;;;9;2.7;;;;;;;20.31;65.06934;941.0008;;;;
2022/10/08 11:42:51;;;;;;;3.9;2.5;;;;;;;20.46;62.38086;940.9583;;;;
2022/10/08 11:45:17;;;;;;;6.1;2.7;;;;;;;20.53;60.89551;940.9824;;;;
2022/10/08 11:47:42;;;;;;;4;2.6;;;;;;;20.58;60.57422;940.9772;;;;
2022/10/08 11:50:07;;;;;;;5;2.3;;;;;;;20.66;61.04102;940.9933;;;;
2022/10/08 11:52:33;;;;;;;4.8;2.5;;;;;;;20.63;60.80371;940.955;;;;
2022/10/08 11:55:01;;;;;;;5.5;2.6;;;;;;;20.61;60.81445;940.9705;;;;
2022/10/08 11:57:32;;;;;;;6.5;2.7;;;;;;;20.34;61.87402;940.9411;;;;
2022/10/08 11:59:53;;;;;;;6;3;;;;;;;20.35;61.96777;940.9561;;;;
2022/10/08 12:02:23;;;;;;;6.9;3;;;;;;;20.02;61.85254;940.9191;;;;
2022/10/08 12:04:48;;;;;;;5.3;2.8;;;;;;;19.72;63.4668;940.8621;;;;
2022/10/08 12:07:13;;;;;;;5.3;2.4;;;;;;;19.31;64.85156;940.9005;;;;
2022/10/08 12:09:38;;;;;;;5.1;2.7;;;;;;;19.56;64.66602;940.9881;;;;
2022/10/08 12:12:03;;;;;;;5.5;2.6;;;;;;;19.61;64.52246;940.9741;;;;
2022/10/08 12:14:32;;;;;;;4.3;2.5;;;;;;;19.53;64.9082;940.981;;;;
2022/10/08 12:17:01;;;;;;;6.9;2.9;;;;;;;19.39;66.28516;940.8859;;;;
2022/10/08 12:19:28;;;;;;;6.9;3.9;;;;;;;18.9;68.48145;940.9182;;;;
2022/10/08 12:21:53;;;;;;;6;3;;;;;;;19.01;67.97461;940.7911;;;;
2022/10/08 12:24:21;;;;;;;4.9;3;;;;;;;18.94;68.78906;940.8182;;;;
2022/10/08 12:26:46;;;;;;;7.1;2.8;;;;;;;18.94;68.64941;940.8441;;;;
2022/10/08 12:29:12;;;;;;;5.5;2.9;;;;;;;18.92;68.21484;940.8405;;;;
2022/10/08 12:31:38;;;;;;;6.4;2.8;;;;;;;18.97;67.19922;940.7902;;;;
2022/10/08 12:34:02;;;;;;;5.6;3;;;;;;;18.95;66.5332;940.8002;;;;
2022/10/08 12:36:27;;;;;;;6.5;2.8;;;;;;;18.83;67.21289;940.7711;;;;
2022/10/08 12:38:52;;;;;;;4.7;2.7;;;;;;;18.83;67.21289;940.7484;;;;
2022/10/08 12:41:17;;;;;;;6;2.7;;;;;;;19.06;66.45605;940.7227;;;;
2022/10/08 12:43:45;;;;;;;5.2;2.6;;;;;;;19.08;67.50684;940.7037;;;;
2022/10/08 12:46:16;;;;;;;6.1;2.8;;;;;;;19.15;66.44629;940.6861;;;;
2022/10/08 12:48:38;;;;;;;6.8;2.7;;;;;;;19.23;66.99414;940.7123;;;;
2022/10/08 12:51:05;;;;;;;10;3.5;;;;;;;19.1;68.29102;940.721;;;;
2022/10/08 12:53:32;;;;;;;4.8;3.2;;;;;;;19.24;68.7207;940.7693;;;;
2022/10/08 12:55:57;;;;;;;5.8;2.7;;;;;;;19.43;65.76758;940.8013;;;;
2022/10/08 12:58:25;;;;;;;6.7;3.6;;;;;;;19.47;67.96387;940.866;;;;
2022/10/08 13:00:50;;;;;;;7.4;4.1;;;;;;;19.16;69.69629;940.7933;;;;
2022/10/08 13:03:19;;;;;;;6.4;3.4;;;;;;;19.19;68.97852;940.8591;;;;
2022/10/08 13:05:42;;;;;;;4.4;3;;;;;;;19.18;69.27051;940.8502;;;;
2022/10/08 13:08:08;;;;;;;4.1;2.9;;;;;;;18.95;69.22168;940.847;;;;
2022/10/08 13:10:37;;;;;;;4.7;2.9;;;;;;;18.94;69.34863;940.8635;;;;
2022/10/08 13:13:02;;;;;;;3.7;2.5;;;;;;;18.98;69.79785;940.8731;;;;
2022/10/08 13:15:33;;;;;;;4.8;2.9;;;;;;;18.92;70.51953;940.8929;;;;
2022/10/08 13:17:58;;;;;;;4.5;2.5;;;;;;;18.83;70.99707;940.8767;;;;
2022/10/08 13:20:25;;;;;;;6.1;3.3;;;;;;;18.81;70.93457;940.8928;;;;
2022/10/08 13:22:50;;;;;;;8.5;3.3;;;;;;;18.78;70.55566;940.9032;;;;
2022/10/08 13:25:19;;;;;;;6.1;3.3;;;;;;;18.68;70.67969;940.9082;;;;
2022/10/08 13:27:45;;;;;;;4.6;2.6;;;;;;;18.6;71.02734;940.942;;;;
2022/10/08 13:30:15;;;;;;;4.4;3;;;;;;;18.48;71.8457;940.9852;;;;
2022/10/08 13:32:40;;;;;;;5.8;3.2;;;;;;;18.39;71.93555;940.9718;;;;
2022/10/08 13:35:14;;;;;;;8.3;3.5;;;;;;;18.38;72.42188;940.9648;;;;
2022/10/08 13:37:39;;;;;;;3.9;2.7;;;;;;;18.41;72.06641;940.9111;;;;
2022/10/08 13:40:04;;;;;;;8;3.1;;;;;;;18.45;71.95703;940.9437;;;;
2022/10/08 13:42:29;;;;;;;6.4;3.6;;;;;;;18.4;72.25195;940.9579;;;;
2022/10/08 13:45:01;;;;;;;6.2;3.5;;;;;;;18.33;72.73828;941.0083;;;;
2022/10/08 13:47:32;;;;;;;5.6;3.5;;;;;;;18.35;72.71875;941.0112;;;;
2022/10/08 13:50:02;;;;;;;5.3;3.5;;;;;;;18.3;72.97852;941.0266;;;;
2022/10/08 13:52:27;;;;;;;8.6;3.6;;;;;;;18.21;73.08105;941.0453;;;;
2022/10/08 13:54:52;;;;;;;6.4;3.5;;;;;;;18.17;73.20117;941.0209;;;;
2022/10/08 13:57:17;;;;;;;4.8;3.1;;;;;;;18.19;73.4248;941.0513;;;;
2022/10/08 13:59:44;;;;;;;3.9;3.3;;;;;;;18.22;73.34961;941.0035;;;;
2022/10/08 14:02:09;;;;;;;6.9;3.6;;;;;;;18.18;73.84082;941.0878;;;;
2022/10/08 14:04:34;;;;;;;6.4;3.5;;;;;;;17.9;74.9541;941.1077;;;;
2022/10/08 14:07:03;;;;;;;4.4;3.1;;;;;;;18.02;74.63965;941.0722;;;;
2022/10/08 14:09:29;;;;;;;5.1;3.3;;;;;;;18.02;75.29004;941.0909;;;;
2022/10/08 14:11:58;;;;;;;5.2;3.2;;;;;;;18.03;75.5;941.1755;;;;
2022/10/08 14:14:18;;;;;;;6.3;3.6;;;;;;;17.92;76.25977;941.1847;;;;
2022/10/08 14:16:48;;;;;;;3.6;3;;;;;;;18.02;76.40527;941.1326;;;;
2022/10/08 14:19:13;;;;;;;4.3;3.4;;;;;;;17.87;77.14453;941.2444;;;;
2022/10/08 14:21:39;;;;;;;6.8;3.4;;;;;;;17.78;78.41895;941.3088;;;;
2022/10/08 14:24:04;;;;;;;5.3;3.3;;;;;;;17.74;79.9082;941.3198;;;;
2022/10/08 14:26:30;;;;;;;7.1;3.7;;;;;;;17.84;79.50781;941.3672;;;;
2022/10/08 14:28:56;;;;;;;6.8;3.7;;;;;;;17.78;79.61426;941.3273;;;;
2022/10/08 14:31:21;;;;;;;6.8;3.6;;;;;;;17.76;79.89941;941.3824;;;;
2022/10/08 14:33:48;;;;;;;5.8;3.2;;;;;;;17.61;78.43457;941.3797;;;;
2022/10/08 14:36:13;;;;;;;6.5;3.6;;;;;;;17.62;77.9834;941.3727;;;;
2022/10/08 14:38:38;;;;;;;5.6;3.2;;;;;;;17.74;79.11914;941.4358;;;;
2022/10/08 14:41:06;;;;;;;9.5;4.2;;;;;;;17.8;80.16211;941.4818;;;;
2022/10/08 14:43:31;;;;;;;5.2;3.3;;;;;;;17.81;80.2334;941.4526;;;;
2022/10/08 14:46:01;;;;;;;5;3.3;;;;;;;17.8;80.70898;941.4777;;;;
2022/10/08 14:48:26;;;;;;;10.4;4.7;;;;;;;17.81;81.44238;941.455;;;;
2022/10/08 14:50:53;;;;;;;16.3;8.3;;;;;;;17.84;81.79688;941.4163;;;;
2022/10/08 14:53:18;;;;;;;11.1;8.1;;;;;;;17.84;82.16895;941.463;;;;
2022/10/08 14:55:46;;;;;;;8.5;4.1;;;;;;;17.56;80.86328;941.3989;;;;
2022/10/08 14:58:11;;;;;;;5.5;3.7;;;;;;;17.29;81.35547;941.4034;;;;
2022/10/08 15:00:38;;;;;;;7.7;3.7;;;;;;;17.18;82.05566;941.4003;;;;
2022/10/08 15:03:03;;;;;;;5.8;4.1;;;;;;;17.11;83.25879;941.3834;;;;
2022/10/08 15:05:31;;;;;;;10.9;7.9;;;;;;;17.19;83.19336;941.3873;;;;
2022/10/08 15:07:56;;;;;;;12.3;6.6;;;;;;;17.22;83.3623;941.3712;;;;
2022/10/08 15:10:25;;;;;;;11.1;6.9;;;;;;;17.26;83.14941;941.4109;;;;
2022/10/08 15:12:55;;;;;;;15.3;9.5;;;;;;;17.29;83.50195;941.3904;;;;
2022/10/08 15:15:21;;;;;;;12.2;9.1;;;;;;;17.32;83.86816;941.416;;;;
2022/10/08 15:17:49;;;;;;;9.5;7.2;;;;;;;17.27;84.33301;941.3642;;;;
2022/10/08 15:20:33;;;;;;;7;5.6;;;;;;;17.24;84.41895;941.3775;;;;
2022/10/08 15:22:53;;;;;;;12.8;5.7;;;;;;;17.22;85.09961;941.3918;;;;
2022/10/08 15:25:21;;;;;;;9.4;6.7;;;;;;;17.24;85.47461;941.4241;;;;
2022/10/08 15:27:46;;;;;;;10.1;8.4;;;;;;;17.15;87.02344;941.5156;;;;
2022/10/08 15:30:17;;;;;;;8.7;5.8;;;;;;;17;88.8584;941.5355;;;;
2022/10/08 15:32:47;;;;;;;9.2;5.8;;;;;;;16.97;88.89941;941.4924;;;;
2022/10/08 15:35:12;;;;;;;8;6;;;;;;;17.02;88.8291;941.5081;;;;
2022/10/08 15:37:41;;;;;;;9;6.5;;;;;;;17.04;89.45703;941.4832;;;;
2022/10/08 15:40:06;;;;;;;8.9;6;;;;;;;17.01;89.61426;941.6005;;;;
2022/10/08 15:42:31;;;;;;;9.7;6.3;;;;;;;16.99;89.54102;941.6055;;;;